createdAt,value
2023-04-02T00:01:36.721Z,7.27
2023-04-02T00:04:08.956Z,7.19
2023-04-02T00:06:40.414Z,7.36
2023-04-02T00:09:13.190Z,7.27
2023-04-02T00:11:42.178Z,7.19
2023-04-02T00:14:19.268Z,7.25
2023-04-02T00:16:45.953Z,7.02
2023-04-02T00:19:19.699Z,7.18
2023-04-02T00:21:46.976Z,7.17
2023-04-02T00:24:17.284Z,7.24
2023-04-02T00:26:49.010Z,7.10
2023-04-02T00:29:16.628Z,7.23
2023-04-02T00:31:48.747Z,6.97
2023-04-02T00:34:23.035Z,7.02
2023-04-02T00:36:50.952Z,6.91
2023-04-02T00:39:23.117Z,6.93
2023-04-02T00:42:06.834Z,7.01
2023-04-02T00:44:37.903Z,6.95
2023-04-02T00:47:12.167Z,6.79
2023-04-02T00:49:40.331Z,6.63
2023-04-02T00:52:10.169Z,6.96
2023-04-02T00:54:47.193Z,6.50
2023-04-02T00:57:20.314Z,6.94
2023-04-02T01:00:07.573Z,6.73
2023-04-02T01:02:38.253Z,6.89
2023-04-02T01:05:22.170Z,6.67
2023-04-02T01:07:57.590Z,6.68
2023-04-02T01:10:36.028Z,6.63
2023-04-02T01:13:07.183Z,6.50
2023-04-02T01:15:39.115Z,6.64
2023-04-02T01:18:33.643Z,6.76
2023-04-02T01:21:09.591Z,6.63
2023-04-02T01:23:35.898Z,6.85
2023-04-02T01:26:23.861Z,6.64
2023-04-02T01:29:13.834Z,6.73
2023-04-02T01:31:40.889Z,6.73
2023-04-02T01:34:15.273Z,6.74
2023-04-02T01:36:51.173Z,6.69
2023-04-02T01:39:53.085Z,6.46
2023-04-02T01:42:32.058Z,6.47
2023-04-02T01:45:05.405Z,6.51
2023-04-02T01:47:33.179Z,6.56
2023-04-02T01:50:26.159Z,6.62
2023-04-02T01:52:55.480Z,6.59
2023-04-02T01:55:45.895Z,6.57
2023-04-02T01:58:13.924Z,6.64
2023-04-02T02:00:51.407Z,6.70
2023-04-02T02:03:19.088Z,6.55
2023-04-02T02:05:46.444Z,6.77
2023-04-02T02:08:40.288Z,6.46
2023-04-02T02:11:08.343Z,6.42
2023-04-02T02:13:34.804Z,6.46
2023-04-02T02:16:02.040Z,6.51
2023-04-02T02:18:29.081Z,6.41
2023-04-02T02:20:58.147Z,6.48
2023-04-02T02:23:24.840Z,6.41
2023-04-02T02:25:51.413Z,6.19
2023-04-02T02:28:33.536Z,6.14
2023-04-02T02:31:03.935Z,6.10
2023-04-02T02:33:39.519Z,6.25
2023-04-02T02:36:08.939Z,6.01
2023-04-02T02:39:01.070Z,5.83
2023-04-02T02:41:35.517Z,6.00
2023-04-02T02:44:24.234Z,6.08
2023-04-02T02:46:54.877Z,5.90
2023-04-02T02:49:28.563Z,5.86
2023-04-02T02:52:03.728Z,5.73
2023-04-02T02:54:32.620Z,5.81
2023-04-02T02:57:03.435Z,5.73
2023-04-02T02:59:30.834Z,5.69
2023-04-02T03:01:58.154Z,5.95
2023-04-02T03:04:25.302Z,5.84
2023-04-02T03:06:53.197Z,5.92
2023-04-02T03:09:31.445Z,5.98
2023-04-02T03:12:15.843Z,5.86
2023-04-02T03:14:54.785Z,5.64
2023-04-02T03:17:26.106Z,5.73
2023-04-02T03:19:57.614Z,5.77
2023-04-02T03:22:27.121Z,5.77
2023-04-02T03:25:01.891Z,5.71
2023-04-02T03:27:31.232Z,5.33
2023-04-02T03:30:03.957Z,5.67
2023-04-02T03:32:33.041Z,5.57
2023-04-02T03:35:03.482Z,5.74
2023-04-02T03:38:00.793Z,5.60
2023-04-02T03:40:31.963Z,5.72
2023-04-02T03:43:04.045Z,5.64
2023-04-02T03:45:37.063Z,5.56
2023-04-02T03:48:10.633Z,5.55
2023-04-02T03:50:47.442Z,5.29
2023-04-02T03:53:13.835Z,5.32
2023-04-02T03:55:41.881Z,5.47
2023-04-02T03:58:18.857Z,5.45
2023-04-02T04:00:51.912Z,5.43
2023-04-02T04:03:24.579Z,5.44
2023-04-02T04:05:53.822Z,5.31
2023-04-02T04:08:42.442Z,5.33
2023-04-02T04:11:14.377Z,5.54
2023-04-02T04:13:54.429Z,5.36
2023-04-02T04:16:27.410Z,5.31
2023-04-02T04:19:03.516Z,5.45
2023-04-02T04:21:31.178Z,4.99
2023-04-02T04:24:03.758Z,5.25
2023-04-02T04:26:57.142Z,5.37
2023-04-02T04:29:47.124Z,5.31
2023-04-02T04:32:32.337Z,5.20
2023-04-02T04:35:26.007Z,5.16
2023-04-02T04:37:58.821Z,5.08
2023-04-02T04:40:36.464Z,4.90
2023-04-02T04:43:15.988Z,4.72
2023-04-02T04:45:55.844Z,4.87
2023-04-02T04:48:50.058Z,5.06
2023-04-02T04:51:24.077Z,4.98
2023-04-02T04:53:52.531Z,4.92
2023-04-02T04:56:22.231Z,4.75
2023-04-02T04:58:50.830Z,4.81
2023-04-02T05:01:23.228Z,4.39
2023-04-02T05:03:58.643Z,4.71
2023-04-02T05:06:52.019Z,4.51
2023-04-02T05:09:24.627Z,4.52
2023-04-02T05:12:10.991Z,4.52
2023-04-02T05:14:50.632Z,4.40
2023-04-02T05:17:21.432Z,4.26
2023-04-02T05:19:53.240Z,4.19
2023-04-02T05:22:22.062Z,4.39
2023-04-02T05:24:53.812Z,4.32
2023-04-02T05:27:29.106Z,4.32
2023-04-02T05:30:10.641Z,4.29
2023-04-02T05:32:42.670Z,4.04
2023-04-02T05:35:15.634Z,3.78
2023-04-02T05:37:42.256Z,3.87
2023-04-02T05:40:44.517Z,3.84
2023-04-02T05:43:15.670Z,3.73
2023-04-02T05:45:44.414Z,4.03
2023-04-02T05:48:19.473Z,3.58
2023-04-02T05:50:49.595Z,3.80
2023-04-02T05:53:29.165Z,3.89
2023-04-02T05:56:00.003Z,3.88
2023-04-02T05:58:36.169Z,3.65
2023-04-02T06:01:24.107Z,3.78
2023-04-02T06:03:56.162Z,3.91
2023-04-02T06:06:43.954Z,3.98
2023-04-02T06:09:19.944Z,3.77
2023-04-02T06:11:49.712Z,3.58
2023-04-02T06:14:16.753Z,3.78
2023-04-02T06:16:44.802Z,3.64
2023-04-02T06:19:17.307Z,3.60
2023-04-02T06:21:49.844Z,3.46
2023-04-02T06:24:20.373Z,3.84
2023-04-02T06:26:52.095Z,3.88
2023-04-02T06:29:28.207Z,3.65
2023-04-02T06:32:02.420Z,3.90
2023-04-02T06:34:30.006Z,3.52
2023-04-02T06:36:59.202Z,3.64
2023-04-02T06:39:27.140Z,3.47
2023-04-02T06:42:13.601Z,3.38
2023-04-02T06:44:40.370Z,3.36
2023-04-02T06:47:13.428Z,3.68
2023-04-02T06:49:51.333Z,3.65
2023-04-02T06:52:50.249Z,3.68
2023-04-02T06:55:45.154Z,3.76
2023-04-02T06:58:11.651Z,3.97
2023-04-02T07:00:43.240Z,3.97
2023-04-02T07:03:17.094Z,4.04
2023-04-02T07:05:43.497Z,3.98
2023-04-02T07:08:09.918Z,3.94
2023-04-02T07:10:37.021Z,4.04
2023-04-02T07:13:03.472Z,4.21
2023-04-02T07:15:30.037Z,4.08
2023-04-02T07:17:59.027Z,4.00
2023-04-02T07:20:37.561Z,3.80
2023-04-02T07:23:04.226Z,4.08
2023-04-02T07:25:30.878Z,4.13
2023-04-02T07:27:57.418Z,4.37
2023-04-02T07:30:24.053Z,4.13
2023-04-02T07:32:51.686Z,3.92
2023-04-02T07:35:18.257Z,4.08
2023-04-02T07:37:44.691Z,4.03
2023-04-02T07:40:20.506Z,4.36
2023-04-02T07:42:46.914Z,4.03
2023-04-02T07:45:13.850Z,4.11
2023-04-02T07:47:40.809Z,4.22
2023-04-02T07:50:08.536Z,4.03
2023-04-02T07:52:42.545Z,3.97
2023-04-02T07:55:13.491Z,4.10
2023-04-02T07:57:50.493Z,4.00
2023-04-02T08:00:17.735Z,4.24
2023-04-02T08:02:44.399Z,4.17
2023-04-02T08:05:11.112Z,4.10
2023-04-02T08:07:38.983Z,4.22
2023-04-02T08:10:06.997Z,4.40
2023-04-02T08:12:33.454Z,4.23
2023-04-02T08:14:59.963Z,4.18
2023-04-02T08:17:31.258Z,4.35
2023-04-02T08:20:01.000Z,4.48
2023-04-02T08:22:28.796Z,4.14
2023-04-02T08:24:56.348Z,4.25
2023-04-02T08:27:24.342Z,4.23
2023-04-02T08:29:51.184Z,4.15
2023-04-02T08:32:18.111Z,4.70
2023-04-02T08:34:45.460Z,4.80
2023-04-02T08:37:12.567Z,4.72
2023-04-02T08:39:40.031Z,4.65
2023-04-02T08:42:38.249Z,4.91
2023-04-02T08:45:38.300Z,4.81
2023-04-02T08:48:06.441Z,4.95
2023-04-02T08:50:35.443Z,4.92
2023-04-02T08:53:07.869Z,4.93
2023-04-02T08:55:42.718Z,5.15
2023-04-02T08:58:28.010Z,5.19
2023-04-02T09:00:55.479Z,5.76
2023-04-02T09:03:31.870Z,6.45
2023-04-02T09:05:58.509Z,6.77
2023-04-02T09:08:26.192Z,7.57
2023-04-02T09:11:09.067Z,8.22
2023-04-02T09:13:41.036Z,8.77
2023-04-02T09:16:12.756Z,9.64
2023-04-02T09:18:39.458Z,9.97
2023-04-02T09:21:21.130Z,10.45
2023-04-02T09:23:48.210Z,10.66
2023-04-02T09:26:41.097Z,10.57
2023-04-02T09:29:13.499Z,10.89
2023-04-02T09:31:50.899Z,11.56
2023-04-02T09:34:31.847Z,12.03
2023-04-02T09:37:07.245Z,11.73
2023-04-02T09:39:34.389Z,11.87
2023-04-02T09:42:06.183Z,12.36
2023-04-02T09:44:32.876Z,12.14
2023-04-02T09:47:03.912Z,12.33
2023-04-02T09:49:33.130Z,12.16
2023-04-02T09:52:09.002Z,12.32
2023-04-02T09:54:41.793Z,11.66
2023-04-02T09:57:23.522Z,12.55
2023-04-02T10:00:41.821Z,12.69
2023-04-02T10:03:32.807Z,12.96
2023-04-02T10:06:15.427Z,13.30
2023-04-02T10:08:43.685Z,13.49
2023-04-02T10:11:30.958Z,13.60
2023-04-02T10:14:06.570Z,13.48
2023-04-02T10:16:44.837Z,13.20
2023-04-02T10:19:36.738Z,13.14
2023-04-02T10:22:12.817Z,12.94
2023-04-02T10:24:39.719Z,13.13
2023-04-02T10:27:29.547Z,12.40
2023-04-02T10:30:21.111Z,12.26
2023-04-02T10:33:38.705Z,12.45
2023-04-02T10:36:35.605Z,13.12
2023-04-02T10:39:08.421Z,13.54
2023-04-02T10:41:46.827Z,13.24
2023-04-02T10:44:33.416Z,13.12
2023-04-02T10:47:19.772Z,12.95
2023-04-02T10:49:46.339Z,13.40
2023-04-02T10:52:21.593Z,13.75
2023-04-02T10:54:47.955Z,14.15
2023-04-02T10:57:32.640Z,14.20
2023-04-02T11:00:09.295Z,13.43
2023-04-02T11:02:49.474Z,13.35
2023-04-02T11:05:45.289Z,13.24
2023-04-02T11:08:51.285Z,13.70
2023-04-02T11:11:21.447Z,13.87
2023-04-02T11:13:58.973Z,13.81
2023-04-02T11:16:25.635Z,13.68
2023-04-02T11:19:17.178Z,12.74
2023-04-02T11:22:01.469Z,12.93
2023-04-02T11:24:34.408Z,13.04
2023-04-02T11:27:11.099Z,12.54
2023-04-02T11:29:39.533Z,13.28
2023-04-02T11:32:25.179Z,13.09
2023-04-02T11:35:06.341Z,12.54
2023-04-02T11:37:37.360Z,12.51
2023-04-02T11:40:15.766Z,11.86
2023-04-02T11:42:44.006Z,12.58
2023-04-02T11:45:28.706Z,12.52
2023-04-02T11:48:01.342Z,12.29
2023-04-02T11:50:39.564Z,12.62
2023-04-02T11:53:21.554Z,12.09
2023-04-02T11:55:54.001Z,12.58
2023-04-02T11:58:27.473Z,12.23
2023-04-02T12:01:14.710Z,12.11
2023-04-02T12:04:05.621Z,13.31
2023-04-02T12:06:49.228Z,13.63
2023-04-02T12:09:19.668Z,13.96
2023-04-02T12:11:47.410Z,14.10
2023-04-02T12:14:41.540Z,14.36
2023-04-02T12:17:16.264Z,14.39
2023-04-02T12:19:48.094Z,13.63
2023-04-02T12:22:19.470Z,13.32
2023-04-02T12:24:47.584Z,13.65
2023-04-02T12:27:27.612Z,13.50
2023-04-02T12:29:56.031Z,13.30
2023-04-02T12:32:29.893Z,13.22
2023-04-02T12:34:58.076Z,13.93
2023-04-02T12:37:27.280Z,14.23
2023-04-02T12:40:01.204Z,14.15
2023-04-02T12:42:37.585Z,14.00
2023-04-02T12:45:06.792Z,14.25
2023-04-02T12:47:33.301Z,14.30
2023-04-02T12:50:00.762Z,14.86
2023-04-02T12:52:28.930Z,15.06
2023-04-02T12:55:00.718Z,15.66
2023-04-02T12:57:31.729Z,16.15
2023-04-02T13:00:06.115Z,15.42
2023-04-02T13:02:44.581Z,15.95
2023-04-02T13:05:11.818Z,16.92
2023-04-02T13:07:38.590Z,16.77
2023-04-02T13:10:23.124Z,17.25
2023-04-02T13:12:55.419Z,17.36
2023-04-02T13:15:23.900Z,17.36
2023-04-02T13:18:02.591Z,17.43
2023-04-02T13:20:39.206Z,17.55
2023-04-02T13:23:31.319Z,18.03
2023-04-02T13:26:10.892Z,18.79
2023-04-02T13:28:37.533Z,18.87
2023-04-02T13:31:04.095Z,19.74
2023-04-02T13:33:30.555Z,19.37
2023-04-02T13:35:57.026Z,19.44
2023-04-02T13:38:23.484Z,19.67
2023-04-02T13:40:51.290Z,19.61
2023-04-02T13:43:19.731Z,20.29
2023-04-02T13:45:52.072Z,20.56
2023-04-02T13:48:18.707Z,20.82
2023-04-02T13:50:46.216Z,20.38
2023-04-02T13:53:28.358Z,20.13
2023-04-02T13:55:54.984Z,20.67
2023-04-02T13:58:21.689Z,20.18
2023-04-02T14:00:48.281Z,21.01
2023-04-02T14:03:21.755Z,21.14
2023-04-02T14:05:58.078Z,21.42
2023-04-02T14:08:53.330Z,21.57
2023-04-02T14:12:04.716Z,21.20
2023-04-02T14:14:56.153Z,22.00
2023-04-02T14:17:56.496Z,21.51
2023-04-02T14:21:04.073Z,21.90
2023-04-02T14:23:33.455Z,22.14
2023-04-02T14:26:11.942Z,21.76
2023-04-02T14:28:50.615Z,22.21
2023-04-02T14:31:23.132Z,22.89
2023-04-02T14:33:57.739Z,21.91
2023-04-02T14:36:42.700Z,22.21
2023-04-02T14:39:24.498Z,22.86
2023-04-02T14:42:05.105Z,22.06
2023-04-02T14:44:37.021Z,22.16
2023-04-02T14:47:33.995Z,21.70
2023-04-02T14:50:11.988Z,22.17
2023-04-02T14:52:41.834Z,22.36
2023-04-02T14:55:32.821Z,21.49
2023-04-02T14:58:02.423Z,22.25
2023-04-02T15:00:41.814Z,21.28
2023-04-02T15:03:32.382Z,22.00
2023-04-02T15:06:06.842Z,21.45
2023-04-02T15:09:08.311Z,22.27
2023-04-02T15:11:43.471Z,21.85
2023-04-02T15:14:17.140Z,21.31
2023-04-02T15:16:43.961Z,21.84
2023-04-02T15:19:13.353Z,21.96
2023-04-02T15:21:58.947Z,21.88
2023-04-02T15:24:50.601Z,21.98
2023-04-02T15:27:49.540Z,22.64
2023-04-02T15:30:22.071Z,22.51
2023-04-02T15:32:49.316Z,21.52
2023-04-02T15:35:55.619Z,21.29
2023-04-02T15:38:37.350Z,21.42
2023-04-02T15:41:23.543Z,22.96
2023-04-02T15:44:14.712Z,22.47
2023-04-02T15:46:59.431Z,22.37
2023-04-02T15:49:54.885Z,21.51
2023-04-02T15:52:30.348Z,21.76
2023-04-02T15:55:02.746Z,20.62
2023-04-02T15:57:54.652Z,21.24
2023-04-02T16:00:28.354Z,20.93
2023-04-02T16:03:20.970Z,20.64
2023-04-02T16:06:16.862Z,19.93
2023-04-02T16:09:14.376Z,19.76
2023-04-02T16:11:40.787Z,20.02
2023-04-02T16:14:17.213Z,20.14
2023-04-02T16:16:46.710Z,20.09
2023-04-02T16:19:28.927Z,19.42
2023-04-02T16:22:26.930Z,19.62
2023-04-02T16:25:00.280Z,19.79
2023-04-02T16:27:37.720Z,20.17
2023-04-02T16:30:29.957Z,19.77
2023-04-02T16:33:31.845Z,19.56
2023-04-02T16:36:08.929Z,19.65
2023-04-02T16:38:50.595Z,19.03
2023-04-02T16:41:35.254Z,17.41
2023-04-02T16:44:20.622Z,18.42
2023-04-02T16:46:56.174Z,18.32
2023-04-02T16:49:51.930Z,17.33
2023-04-02T16:52:21.306Z,18.12
2023-04-02T16:54:53.729Z,17.16
2023-04-02T16:57:58.912Z,17.99
2023-04-02T17:00:36.997Z,17.16
2023-04-02T17:03:37.492Z,16.92
2023-04-02T17:06:09.212Z,15.42
2023-04-02T17:08:59.696Z,16.25
2023-04-02T17:11:47.545Z,16.17
2023-04-02T17:14:41.250Z,15.88
2023-04-02T17:17:11.523Z,15.60
2023-04-02T17:19:39.417Z,15.25
2023-04-02T17:22:06.276Z,15.24
2023-04-02T17:24:39.374Z,14.58
2023-04-02T17:27:29.146Z,14.26
2023-04-02T17:30:01.272Z,13.58
2023-04-02T17:32:31.445Z,12.97
2023-04-02T17:35:12.568Z,12.82
2023-04-02T17:37:43.376Z,12.60
2023-04-02T17:40:26.252Z,11.99
2023-04-02T17:43:05.445Z,12.17
2023-04-02T17:46:05.270Z,12.14
2023-04-02T17:48:45.390Z,11.88
2023-04-02T17:51:11.756Z,11.99
2023-04-02T17:54:07.341Z,11.67
2023-04-02T17:56:52.649Z,11.52
2023-04-02T17:59:28.228Z,11.46
2023-04-02T18:02:12.913Z,11.34
2023-04-02T18:05:20.711Z,10.96
2023-04-02T18:08:05.740Z,10.70
2023-04-02T18:10:39.673Z,10.74
2023-04-02T18:13:23.946Z,10.41
2023-04-02T18:16:02.166Z,10.61
2023-04-02T18:18:58.908Z,10.44
2023-04-02T18:21:39.421Z,10.19
2023-04-02T18:24:10.451Z,10.28
2023-04-02T18:27:03.192Z,9.85
2023-04-02T18:29:41.989Z,9.97
2023-04-02T18:32:34.214Z,9.76
2023-04-02T18:35:03.504Z,9.79
2023-04-02T18:37:39.422Z,9.67
2023-04-02T18:40:24.485Z,9.74
2023-04-02T18:43:28.635Z,9.66
2023-04-02T18:45:59.375Z,9.61
2023-04-02T18:48:56.607Z,9.30
2023-04-02T18:51:25.135Z,9.51
2023-04-02T18:53:57.147Z,9.39
2023-04-02T18:56:24.587Z,8.90
2023-04-02T18:58:56.748Z,9.20
2023-04-02T19:01:28.126Z,9.29
2023-04-02T19:04:04.545Z,9.33
2023-04-02T19:06:42.061Z,9.01
2023-04-02T19:09:18.128Z,9.24
2023-04-02T19:11:44.514Z,9.02
2023-04-02T19:14:14.241Z,8.48
2023-04-02T19:17:02.581Z,9.01
2023-04-02T19:19:37.948Z,8.74
2023-04-02T19:22:41.743Z,9.05
2023-04-02T19:25:30.407Z,9.01
2023-04-02T19:28:07.719Z,8.78
2023-04-02T19:30:57.289Z,8.69
2023-04-02T19:33:44.299Z,8.83
2023-04-02T19:36:38.792Z,8.48
2023-04-02T19:39:28.161Z,8.65
2023-04-02T19:42:03.437Z,7.78
2023-04-02T19:44:29.976Z,8.47
2023-04-02T19:46:56.561Z,8.62
2023-04-02T19:49:33.731Z,8.23
2023-04-02T19:52:00.397Z,7.80
2023-04-02T19:54:26.850Z,8.36
2023-04-02T19:56:53.445Z,7.98
2023-04-02T19:59:20.006Z,8.08
2023-04-02T20:01:46.924Z,7.93
2023-04-02T20:04:13.839Z,7.78
2023-04-02T20:06:40.402Z,7.99
2023-04-02T20:09:08.497Z,8.01
2023-04-02T20:11:36.788Z,7.90
2023-04-02T20:14:03.584Z,7.84
2023-04-02T20:16:32.690Z,7.95
2023-04-02T20:18:59.170Z,7.55
2023-04-02T20:21:26.726Z,7.40
2023-04-02T20:23:54.395Z,7.41
2023-04-02T20:26:22.499Z,7.44
2023-04-02T20:28:49.012Z,7.19
2023-04-02T20:31:18.146Z,7.68
2023-04-02T20:33:45.274Z,7.53
2023-04-02T20:36:16.321Z,7.57
2023-04-02T20:38:43.478Z,7.44
2023-04-02T20:41:09.979Z,6.69
2023-04-02T20:43:37.573Z,7.03
2023-04-02T20:46:05.644Z,7.35
2023-04-02T20:48:33.110Z,7.21
2023-04-02T20:51:00.558Z,6.97
2023-04-02T20:53:29.154Z,7.13
2023-04-02T20:56:06.380Z,6.68
2023-04-02T20:58:34.218Z,7.14
2023-04-02T21:01:17.179Z,7.03
2023-04-02T21:03:43.872Z,7.11
2023-04-02T21:06:15.793Z,6.85
2023-04-02T21:08:42.878Z,6.76
2023-04-02T21:11:10.028Z,6.81
2023-04-02T21:13:37.071Z,6.43
2023-04-02T21:16:05.218Z,6.51
2023-04-02T21:18:32.712Z,6.63
2023-04-02T21:21:01.381Z,6.83
2023-04-02T21:23:29.083Z,6.56
2023-04-02T21:25:58.595Z,5.99
2023-04-02T21:28:25.351Z,6.59
2023-04-02T21:30:51.821Z,5.84
2023-04-02T21:33:18.244Z,6.70
2023-04-02T21:35:44.700Z,6.73
2023-04-02T21:38:11.129Z,6.33
2023-04-02T21:40:37.522Z,6.19
2023-04-02T21:43:03.938Z,6.21
2023-04-02T21:45:30.438Z,6.69
2023-04-02T21:47:56.882Z,6.34
2023-04-02T21:50:23.425Z,6.36
2023-04-02T21:52:49.901Z,6.38
2023-04-02T21:55:16.359Z,5.78
2023-04-02T21:57:42.843Z,6.14
2023-04-02T22:00:12.327Z,6.42
2023-04-02T22:02:39.063Z,5.99
2023-04-02T22:05:06.130Z,6.15
2023-04-02T22:07:32.564Z,5.53
2023-04-02T22:09:59.009Z,6.03
2023-04-02T22:12:25.482Z,6.07
2023-04-02T22:14:51.883Z,5.91
2023-04-02T22:17:18.306Z,5.44
2023-04-02T22:19:44.757Z,5.94
2023-04-02T22:22:11.181Z,5.95
2023-04-02T22:24:37.579Z,5.50
2023-04-02T22:27:04.011Z,5.76
2023-04-02T22:29:30.392Z,5.77
2023-04-02T22:31:56.827Z,5.22
2023-04-02T22:34:23.327Z,5.59
2023-04-02T22:36:49.879Z,5.13
2023-04-02T22:39:17.074Z,5.33
2023-04-02T22:41:43.644Z,5.61
2023-04-02T22:44:14.145Z,4.83
2023-04-02T22:46:40.679Z,5.11
2023-04-02T22:49:07.275Z,4.87
2023-04-02T22:51:33.848Z,5.30
2023-04-02T22:54:00.235Z,5.45
2023-04-02T22:56:32.033Z,5.59
2023-04-02T22:58:58.822Z,5.42
2023-04-02T23:01:32.192Z,5.53
2023-04-02T23:03:58.646Z,4.81
2023-04-02T23:06:25.379Z,5.52
2023-04-02T23:08:52.284Z,5.16
2023-04-02T23:11:24.691Z,5.35
2023-04-02T23:13:52.507Z,5.43
2023-04-02T23:16:19.725Z,5.22
2023-04-02T23:18:48.076Z,5.36
2023-04-02T23:21:15.561Z,5.02
2023-04-02T23:23:42.002Z,5.20
2023-04-02T23:26:13.727Z,5.25
2023-04-02T23:28:40.644Z,5.28
2023-04-02T23:31:09.322Z,5.25
2023-04-02T23:33:35.736Z,4.89
2023-04-02T23:36:17.629Z,5.25
2023-04-02T23:38:44.111Z,5.00
2023-04-02T23:41:14.722Z,4.43
2023-04-02T23:43:41.377Z,5.04
2023-04-02T23:46:07.782Z,5.16
2023-04-02T23:48:34.289Z,4.73
2023-04-02T23:51:00.832Z,4.60
2023-04-02T23:53:27.281Z,4.90
2023-04-02T23:55:53.693Z,4.74
2023-04-02T23:58:20.220Z,3.91
